Time;durP1;ratioP1;P1;durP2;ratioP2;P2;SDS_P1;SDS_P2;PMS_P1;PMS_P2;Temp;Humidity;BMP_temperature;BMP_pressure;BME280_temperature;BME280_humidity;BME280_pressure;Samples;Min_cycle;Max_cycle;Signal;HPM_P1;HPM_P2
2022/11/07 00:00:36;;;;;;;2.20;1.53;;;;;;;9.63;77.86;100580.63;6069344;29;20252;-73
2022/11/07 00:03:59;;;;;;;2.13;1.77;;;;;;;9.64;77.91;100587.69;6064750;29;20236;-73
2022/11/07 00:07:20;;;;;;;1.67;1.57;;;;;;;9.65;77.98;100578.66;6077814;29;20264;-74
2022/11/07 00:10:41;;;;;;;1.67;1.57;;;;;;;9.69;77.06;100577.38;6048237;29;20316;-74
2022/11/07 00:14:02;;;;;;;1.10;1.10;;;;;;;9.72;77.21;100589.72;6067838;29;20228;-75
2022/11/07 00:17:22;;;;;;;3.20;1.73;;;;;;;9.74;77.21;100571.59;6073753;29;20671;-74
2022/11/07 00:20:44;;;;;;;1.93;1.83;;;;;;;9.76;77.10;100570.47;6058577;29;20241;-73
2022/11/07 00:24:06;;;;;;;5.53;2.57;;;;;;;9.79;76.70;100591.69;6072681;29;20224;-74
2022/11/07 00:27:27;;;;;;;1.20;1.20;;;;;;;9.81;77.39;100578.09;6078212;29;20228;-73
2022/11/07 00:30:48;;;;;;;1.57;1.33;;;;;;;9.88;76.99;100590.88;6068712;29;20601;-73
2022/11/07 00:34:09;;;;;;;1.87;1.67;;;;;;;9.93;76.95;100571.63;6077631;29;20235;-76
2022/11/07 00:37:31;;;;;;;1.80;1.60;;;;;;;9.95;76.92;100588.50;6078086;29;20240;-76
2022/11/07 00:40:55;;;;;;;2.97;2.40;;;;;;;10.04;76.82;100582.25;6068955;29;20619;-74
2022/11/07 00:44:16;;;;;;;2.70;1.90;;;;;;;10.14;76.68;100586.69;6054255;29;20232;-77
2022/11/07 00:47:37;;;;;;;2.40;1.57;;;;;;;10.19;76.06;100595.22;6080187;29;20235;-76
2022/11/07 00:51:04;;;;;;;1.97;1.73;;;;;;;10.22;76.09;100586.00;6080909;29;20229;-74
2022/11/07 00:54:27;;;;;;;1.63;1.47;;;;;;;10.28;75.60;100588.97;6064901;29;20236;-73
2022/11/07 00:57:48;;;;;;;2.70;1.63;;;;;;;10.29;75.78;100595.19;6059546;29;20327;-73
2022/11/07 01:01:11;;;;;;;2.00;1.80;;;;;;;10.34;75.42;100598.34;6062737;29;21267;-74
2022/11/07 01:08:10;;;;;;;1.90;1.77;;;;;;;10.33;76.15;100616.34;6072003;29;20236;-74
2022/11/07 01:11:32;;;;;;;3.17;1.90;;;;;;;10.43;75.44;100602.84;6077485;29;20225;-74
2022/11/07 01:14:53;;;;;;;5.10;1.60;;;;;;;10.42;75.25;100623.59;6069674;29;20260;-73
2022/11/07 01:18:15;;;;;;;4.10;1.43;;;;;;;10.44;76.09;100613.50;6073120;29;20256;-73
2022/11/07 01:21:37;;;;;;;5.57;3.10;;;;;;;10.48;75.45;100621.31;6078807;29;20225;-74
2022/11/07 01:24:58;;;;;;;1.50;1.20;;;;;;;10.53;75.71;100619.91;6044333;29;20241;-75
2022/11/07 01:28:21;;;;;;;2.43;1.87;;;;;;;10.55;75.62;100614.34;6065256;29;20275;-73
2022/11/07 01:31:42;;;;;;;1.87;1.53;;;;;;;10.61;75.37;100606.56;6074827;29;20240;-74
2022/11/07 01:35:03;;;;;;;1.83;1.70;;;;;;;10.60;75.57;100607.53;6043359;29;20275;-73
2022/11/07 01:38:24;;;;;;;1.97;1.80;;;;;;;10.61;75.54;100606.56;6064063;29;20241;-73
2022/11/07 01:41:45;;;;;;;2.50;1.63;;;;;;;10.58;76.05;100606.81;6075880;29;20225;-76
2022/11/07 01:45:18;;;;;;;4.70;1.57;;;;;;;10.59;75.71;100595.06;6066688;29;20244;-77
2022/11/07 01:48:42;;;;;;;1.27;1.20;;;;;;;10.62;76.13;100602.84;6065087;29;20579;-74
2022/11/07 01:52:06;;;;;;;9.47;1.90;;;;;;;10.59;76.23;100610.38;6056135;29;20244;-74
2022/11/07 01:55:29;;;;;;;2.77;2.57;;;;;;;10.59;76.58;100607.69;6063841;29;20232;-73
2022/11/07 01:58:52;;;;;;;1.33;1.20;;;;;;;10.60;76.49;100595.94;6062077;29;20594;-73
2022/11/07 02:02:14;;;;;;;4.63;2.13;;;;;;;10.67;75.63;100605.13;6072829;29;20611;-74
2022/11/07 02:05:41;;;;;;;2.33;1.80;;;;;;;10.66;76.20;100598.03;6064345;29;20253;-73
2022/11/07 02:09:01;;;;;;;6.10;1.60;;;;;;;10.69;76.35;100595.91;6065078;29;20229;-78
2022/11/07 02:12:24;;;;;;;2.23;1.77;;;;;;;10.68;76.03;100599.56;6059272;29;20256;-73
2022/11/07 02:15:45;;;;;;;1.70;1.60;;;;;;;10.70;76.07;100594.06;6062825;29;20240;-73
2022/11/07 02:19:16;;;;;;;1.90;1.77;;;;;;;10.69;76.19;100601.28;6066627;29;20339;-77
2022/11/07 02:22:43;;;;;;;4.37;1.47;;;;;;;10.74;76.62;100599.03;6080601;29;20307;-78
2022/11/07 02:26:06;;;;;;;1.33;1.30;;;;;;;10.82;76.30;100603.69;6086132;29;20228;-74
2022/11/07 02:29:27;;;;;;;4.63;2.23;;;;;;;10.82;76.54;100599.16;6055158;29;20232;-77
2022/11/07 02:32:49;;;;;;;1.53;1.20;;;;;;;10.85;76.43;100601.53;6063887;29;20232;-78
2022/11/07 02:36:15;;;;;;;1.10;1.10;;;;;;;10.95;76.64;100604.25;6062324;29;21687;-74
2022/11/07 02:39:36;;;;;;;2.17;1.57;;;;;;;11.00;75.91;100610.88;6068728;29;20344;-73
2022/11/07 02:43:00;;;;;;;1.67;1.50;;;;;;;11.03;75.57;100594.44;6069815;29;20299;-73
2022/11/07 02:46:22;;;;;;;5.70;2.67;;;;;;;11.12;76.13;100622.34;6076705;29;20515;-73
2022/11/07 02:49:43;;;;;;;3.03;1.50;;;;;;;11.11;76.37;100602.63;6065290;29;20236;-74
2022/11/07 02:53:04;;;;;;;5.63;1.57;;;;;;;11.16;75.86;100607.56;6071761;29;20245;-76
2022/11/07 02:56:25;;;;;;;2.33;2.13;;;;;;;11.15;76.55;100611.28;6077381;29;20651;-78
2022/11/07 02:59:48;;;;;;;1.67;1.50;;;;;;;11.18;75.98;100614.53;6069512;29;20622;-73
2022/11/07 03:03:09;;;;;;;3.37;1.97;;;;;;;11.20;76.33;100607.13;6064132;29;20621;-73
2022/11/07 03:06:30;;;;;;;3.73;2.63;;;;;;;11.22;75.21;100610.53;6065656;29;20232;-74
2022/11/07 03:09:51;;;;;;;2.20;1.50;;;;;;;11.22;76.39;100607.00;6065377;29;20240;-76
2022/11/07 03:13:12;;;;;;;1.77;1.67;;;;;;;11.25;75.86;100602.16;6060897;29;20252;-79
2022/11/07 03:16:34;;;;;;;2.33;1.20;;;;;;;11.24;75.59;100608.53;6072804;29;22155;-79
2022/11/07 03:19:54;;;;;;;2.03;1.23;;;;;;;11.32;76.27;100602.44;6040655;29;20315;-74
2022/11/07 03:23:15;;;;;;;2.30;1.03;;;;;;;11.31;75.80;100598.00;6064457;29;20236;-73
2022/11/07 03:26:36;;;;;;;1.40;1.30;;;;;;;11.39;75.54;100610.78;6067858;29;20505;-74
2022/11/07 03:29:57;;;;;;;2.00;1.57;;;;;;;11.39;76.25;100614.31;6062097;29;21013;-74
2022/11/07 03:33:20;;;;;;;2.10;1.97;;;;;;;11.41;76.13;100611.50;6051405;29;20233;-77
2022/11/07 03:36:41;;;;;;;3.53;3.23;;;;;;;11.41;76.58;100617.72;6080012;29;20228;-73
2022/11/07 03:40:02;;;;;;;2.10;1.47;;;;;;;11.41;75.59;100619.59;6068841;29;20232;-73
2022/11/07 03:43:23;;;;;;;1.83;1.73;;;;;;;11.43;75.99;100620.28;6072141;29;20688;-73
2022/11/07 03:46:44;;;;;;;1.50;1.40;;;;;;;11.44;76.53;100616.56;6080001;29;20232;-73
2022/11/07 03:50:08;;;;;;;2.77;1.47;;;;;;;11.44;76.22;100608.47;6054236;29;20241;-77
2022/11/07 03:53:30;;;;;;;1.03;1.03;;;;;;;11.46;76.71;100636.16;6062887;29;20228;-74
2022/11/07 03:56:50;;;;;;;1.40;1.30;;;;;;;11.46;75.87;100622.66;6082205;29;20233;-74
2022/11/07 04:00:13;;;;;;;1.57;1.47;;;;;;;11.47;76.38;100640.59;6067026;29;20795;-78
2022/11/07 04:03:34;;;;;;;1.40;1.30;;;;;;;11.46;76.39;100618.13;6059705;29;20244;-74
2022/11/07 04:06:56;;;;;;;2.40;1.93;;;;;;;11.47;76.85;100627.94;6076127;29;20542;-76
2022/11/07 04:10:17;;;;;;;1.87;1.43;;;;;;;11.50;76.40;100621.38;6067473;29;20228;-77
2022/11/07 04:17:20;;;;;;;1.93;1.83;;;;;;;11.54;76.89;100626.34;6061873;29;20244;-73
2022/11/07 04:20:41;;;;;;;4.03;2.80;;;;;;;11.52;77.26;100625.63;6063338;29;20439;-74
2022/11/07 04:24:04;;;;;;;3.07;2.23;;;;;;;11.52;76.85;100627.47;6063914;29;20237;-74
2022/11/07 04:27:43;;;;;;;1.37;1.20;;;;;;;11.56;77.14;100626.19;6078673;29;20244;-74
2022/11/07 04:31:04;;;;;;;2.67;1.67;;;;;;;11.58;76.42;100627.72;6074007;29;20544;-76
2022/11/07 04:34:25;;;;;;;1.70;1.60;;;;;;;11.58;76.42;100635.84;6071454;29;20580;-77
2022/11/07 04:37:46;;;;;;;3.30;1.73;;;;;;;11.58;77.08;100632.28;6084019;29;20248;-72
2022/11/07 04:41:18;;;;;;;1.47;1.27;;;;;;;11.53;77.19;100626.50;6086822;29;20236;-73
2022/11/07 04:44:39;;;;;;;1.80;1.70;;;;;;;11.53;77.95;100631.88;6075683;29;20224;-74
2022/11/07 04:48:00;;;;;;;6.07;1.67;;;;;;;11.53;77.24;100624.66;6076172;29;20248;-76
2022/11/07 04:51:23;;;;;;;1.27;1.17;;;;;;;11.50;77.59;100632.16;6065607;29;20662;-74
2022/11/07 04:54:44;;;;;;;2.80;2.50;;;;;;;11.48;78.26;100639.56;6072125;29;20240;-73
2022/11/07 04:58:06;;;;;;;2.03;1.60;;;;;;;11.46;78.09;100618.13;6061667;29;20260;-73
2022/11/07 05:01:27;;;;;;;3.20;3.00;;;;;;;11.47;78.53;100629.78;6076906;29;20629;-75
2022/11/07 05:04:48;;;;;;;2.33;1.93;;;;;;;11.47;78.34;100633.34;6062602;29;20237;-74
2022/11/07 05:08:08;;;;;;;4.30;1.50;;;;;;;11.50;78.48;100640.28;6071566;29;20750;-74
2022/11/07 05:11:29;;;;;;;4.40;2.63;;;;;;;11.52;77.69;100640.97;6079996;29;20594;-73
2022/11/07 05:14:51;;;;;;;1.50;1.40;;;;;;;11.53;77.98;100638.16;6074821;29;22091;-74
2022/11/07 05:18:12;;;;;;;1.50;1.40;;;;;;;11.53;77.83;100643.56;6071971;29;22899;-78
2022/11/07 05:21:33;;;;;;;4.57;1.93;;;;;;;11.54;78.65;100645.22;6082705;29;20228;-73
2022/11/07 05:24:54;;;;;;;1.83;1.40;;;;;;;11.55;78.67;100644.25;6067138;29;20244;-78
2022/11/07 05:28:18;;;;;;;2.57;1.50;;;;;;;11.55;77.98;100663.16;6078366;29;20235;-78
2022/11/07 05:31:40;;;;;;;3.43;1.53;;;;;;;11.54;78.40;100650.63;6069693;29;20796;-74
2022/11/07 05:35:01;;;;;;;2.53;1.70;;;;;;;11.47;78.17;100635.19;6058229;29;20240;-75
2022/11/07 05:38:22;;;;;;;1.83;1.50;;;;;;;11.47;78.23;100656.78;6076201;29;20264;-73
2022/11/07 05:41:43;;;;;;;2.27;1.87;;;;;;;11.42;78.38;100653.66;6081019;29;20245;-73
2022/11/07 05:45:05;;;;;;;3.33;1.60;;;;;;;11.37;79.18;100654.09;6066303;29;20793;-73
2022/11/07 05:48:29;;;;;;;2.40;1.23;;;;;;;11.30;79.39;100657.53;6064373;29;20244;-75
2022/11/07 05:51:50;;;;;;;2.00;1.60;;;;;;;11.39;79.02;100671.00;6071849;29;20236;-71
2022/11/07 05:55:11;;;;;;;4.97;2.03;;;;;;;11.38;79.32;100663.91;6073011;29;20236;-73
2022/11/07 05:58:32;;;;;;;1.87;1.77;;;;;;;11.37;79.57;100661.38;6070644;29;20331;-75
2022/11/07 06:01:53;;;;;;;2.50;2.30;;;;;;;11.28;79.06;100655.81;6064233;29;20611;-75
2022/11/07 06:05:15;;;;;;;2.50;2.30;;;;;;;11.41;79.32;100663.59;6062291;29;20237;-73
2022/11/07 06:08:36;;;;;;;4.30;2.13;;;;;;;11.44;79.49;100659.75;6065976;29;20627;-73
2022/11/07 06:11:57;;;;;;;3.20;2.33;;;;;;;11.47;79.02;100660.34;6074002;29;20240;-73
2022/11/07 06:15:18;;;;;;;3.60;2.27;;;;;;;11.50;78.66;100669.97;6067025;29;20618;-73
2022/11/07 06:18:39;;;;;;;1.40;1.30;;;;;;;11.48;78.79;100677.38;6065209;29;20236;-76
2022/11/07 06:22:01;;;;;;;2.23;1.40;;;;;;;11.48;78.40;100682.75;6074225;29;20232;-73
2022/11/07 06:25:22;;;;;;;1.63;1.53;;;;;;;11.42;79.10;100672.56;6058641;29;20252;-73
2022/11/07 06:28:43;;;;;;;5.07;1.80;;;;;;;11.44;79.28;100676.81;6061246;29;20264;-78
2022/11/07 06:32:05;;;;;;;2.37;2.10;;;;;;;11.38;79.63;100685.50;6067682;29;20248;-74
2022/11/07 06:35:26;;;;;;;2.37;1.37;;;;;;;11.38;79.01;100682.81;6061215;29;20319;-73
2022/11/07 06:38:51;;;;;;;1.67;1.57;;;;;;;11.38;79.38;100690.91;6062985;29;20300;-72
2022/11/07 06:42:12;;;;;;;5.10;2.30;;;;;;;11.33;79.43;100687.78;6064606;29;20245;-74
2022/11/07 06:45:34;;;;;;;2.97;2.33;;;;;;;11.39;79.47;100699.84;6062485;29;20232;-74
2022/11/07 06:48:55;;;;;;;2.53;2.23;;;;;;;11.41;79.58;100695.16;6057632;29;20248;-72
2022/11/07 06:52:16;;;;;;;3.60;2.53;;;;;;;11.39;79.11;100700.69;6078941;29;20602;-75
2022/11/07 06:55:39;;;;;;;5.73;3.57;;;;;;;11.40;79.11;100712.34;6047177;29;20233;-74
2022/11/07 06:59:01;;;;;;;3.20;1.80;;;;;;;11.44;79.65;100711.03;6064913;29;20240;-73
2022/11/07 07:02:22;;;;;;;11.93;2.77;;;;;;;11.44;79.45;100719.13;6079037;29;20240;-76
2022/11/07 07:05:43;;;;;;;3.50;1.93;;;;;;;11.54;79.30;100730.75;6065589;29;20239;-72
2022/11/07 07:09:05;;;;;;;4.13;1.80;;;;;;;11.57;79.65;100730.50;6075753;29;20228;-72
2022/11/07 07:12:28;;;;;;;2.67;2.47;;;;;;;11.57;79.40;100725.94;6079190;29;20237;-71
2022/11/07 07:15:55;;;;;;;3.97;1.13;;;;;;;11.57;78.67;100730.50;6056127;29;20248;-72
2022/11/07 07:19:16;;;;;;;2.83;2.23;;;;;;;11.65;78.41;100733.31;6057657;29;20995;-74
2022/11/07 07:22:37;;;;;;;3.50;2.37;;;;;;;11.69;78.82;100723.94;6064728;29;20232;-75
2022/11/07 07:25:58;;;;;;;17.43;2.53;;;;;;;11.70;79.08;100729.19;6073611;29;20236;-74
2022/11/07 07:29:20;;;;;;;1.80;1.60;;;;;;;11.75;78.86;100735.00;6066026;29;20240;-71
2022/11/07 07:32:42;;;;;;;5.97;2.10;;;;;;;11.79;77.95;100733.72;6067598;29;20237;-75
2022/11/07 07:36:04;;;;;;;3.37;1.73;;;;;;;11.80;78.79;100753.47;6074678;29;20396;-74
2022/11/07 07:39:26;;;;;;;3.90;2.00;;;;;;;11.86;77.72;100737.53;6060260;29;20237;-73
2022/11/07 07:42:47;;;;;;;1.80;1.70;;;;;;;11.84;78.90;100744.09;6068177;29;21169;-74
2022/11/07 07:46:15;;;;;;;2.13;1.80;;;;;;;11.82;78.86;100746.09;6076468;29;20244;-75
2022/11/07 07:49:36;;;;;;;2.93;2.60;;;;;;;11.86;78.63;100756.44;6072079;29;20252;-75
2022/11/07 07:52:58;;;;;;;1.80;1.70;;;;;;;11.90;77.93;100763.25;6066852;29;20244;-78
2022/11/07 07:56:19;;;;;;;1.53;1.43;;;;;;;12.01;77.52;100756.81;6073336;29;20243;-74
2022/11/07 07:59:40;;;;;;;2.70;1.77;;;;;;;12.07;77.14;100766.16;6058398;29;20241;-76
2022/11/07 08:03:03;;;;;;;3.07;1.63;;;;;;;12.06;76.84;100749.09;6066160;29;20232;-76
2022/11/07 08:06:24;;;;;;;2.60;1.73;;;;;;;12.14;77.38;100749.19;6077909;29;20237;-78
2022/11/07 08:09:45;;;;;;;1.73;1.50;;;;;;;12.16;77.00;100755.31;6069183;29;20344;-77
2022/11/07 08:13:06;;;;;;;2.57;2.37;;;;;;;12.13;76.64;100779.94;6069646;29;20241;-75
2022/11/07 08:16:27;;;;;;;3.17;1.80;;;;;;;12.17;76.95;100757.03;6072180;29;20232;-76
2022/11/07 08:19:49;;;;;;;2.63;1.60;;;;;;;12.19;77.07;100748.75;6055380;29;20244;-74
2022/11/07 08:23:10;;;;;;;7.67;2.97;;;;;;;12.29;76.97;100769.34;6066209;29;20344;-76
2022/11/07 08:26:31;;;;;;;2.83;2.50;;;;;;;12.41;76.68;100761.91;6078895;29;20236;-76
2022/11/07 08:29:53;;;;;;;3.70;1.97;;;;;;;12.45;75.73;100766.84;6060352;29;20233;-78
2022/11/07 08:33:14;;;;;;;4.73;2.03;;;;;;;12.33;76.39;100759.94;6062556;29;20259;-74
2022/11/07 08:36:36;;;;;;;2.70;1.50;;;;;;;12.23;77.24;100786.16;6075459;29;20244;-74
2022/11/07 08:39:57;;;;;;;7.40;1.83;;;;;;;12.28;76.46;100778.47;6052570;29;20323;-73
2022/11/07 08:43:18;;;;;;;2.50;1.33;;;;;;;12.36;76.22;100775.00;6063379;29;20248;-73
2022/11/07 08:46:39;;;;;;;5.40;1.70;;;;;;;12.33;76.78;100784.25;6068531;29;22590;-72
2022/11/07 08:50:00;;;;;;;2.37;2.23;;;;;;;12.31;77.12;100790.81;6065848;29;20229;-75
2022/11/07 08:53:24;;;;;;;5.70;1.97;;;;;;;12.34;77.06;100783.28;6057011;29;20232;-74
2022/11/07 08:56:45;;;;;;;5.73;1.80;;;;;;;12.38;76.28;100778.41;6075032;29;20255;-74
2022/11/07 09:00:07;;;;;;;3.07;2.87;;;;;;;12.62;75.38;100784.94;6066046;29;20244;-83
2022/11/07 09:03:28;;;;;;;2.20;2.00;;;;;;;12.74;75.50;100783.75;6041770;29;20240;-75
2022/11/07 09:06:49;;;;;;;3.00;1.80;;;;;;;13.45;73.97;100791.91;6062771;29;20831;-72
2022/11/07 09:10:11;;;;;;;2.17;2.00;;;;;;;14.96;68.03;100789.34;6065672;29;20240;-73
2022/11/07 09:13:33;;;;;;;7.77;2.83;;;;;;;14.11;69.38;100797.63;6071372;29;20232;-75
2022/11/07 09:16:54;;;;;;;3.53;1.70;;;;;;;14.62;68.13;100778.59;6070072;29;20542;-74
2022/11/07 09:20:15;;;;;;;2.13;1.90;;;;;;;14.07;69.97;100782.69;6075644;29;20245;-73
2022/11/07 09:23:36;;;;;;;1.57;1.40;;;;;;;15.49;65.83;100773.47;6075869;29;20225;-75
2022/11/07 09:26:58;;;;;;;4.30;1.47;;;;;;;13.98;69.52;100797.19;6075635;29;20228;-77
2022/11/07 09:30:20;;;;;;;1.60;1.17;;;;;;;13.58;71.30;100778.78;6060230;29;20260;-75
2022/11/07 09:33:41;;;;;;;3.33;2.00;;;;;;;13.44;72.10;100772.09;6055027;29;20229;-80
2022/11/07 09:37:02;;;;;;;1.47;1.10;;;;;;;13.42;72.48;100786.81;6089040;29;20248;-76
2022/11/07 09:40:41;;;;;;;1.90;1.37;;;;;;;14.92;66.78;100780.69;6065603;29;20244;-79
2022/11/07 09:44:34;;;;;;;2.00;1.27;;;;;;;14.82;67.45;100782.69;6069167;29;20229;-79
2022/11/07 09:48:00;;;;;;;2.25;2.00;;;;;;;16.83;59.36;100791.66;6062955;29;20551;-73
2022/11/07 09:51:34;;;;;;;5.80;1.55;;;;;;;15.06;64.67;100800.91;6085395;29;20236;-78
2022/11/07 09:55:00;;;;;;;7.28;1.85;;;;;;;14.64;67.09;100802.81;6065662;29;20233;-79
2022/11/07 09:58:26;;;;;;;4.60;1.43;;;;;;;14.64;67.03;100806.41;6072364;29;20229;-80
2022/11/07 10:01:47;;;;;;;4.87;2.07;;;;;;;14.29;68.55;100807.41;6083784;29;22365;-74
2022/11/07 10:05:15;;;;;;;2.10;1.47;;;;;;;13.89;70.30;100812.59;6076221;29;20671;-75
2022/11/07 10:08:43;;;;;;;6.07;1.93;;;;;;;13.82;70.82;100814.22;6071757;29;20259;-76
2022/11/07 10:12:17;;;;;;;2.73;1.57;;;;;;;13.86;70.83;100826.44;6072017;29;20228;-74
2022/11/07 10:15:52;;;;;;;3.13;2.03;;;;;;;13.87;71.13;100820.00;6058566;29;20619;-76
2022/11/07 10:19:29;;;;;;;2.47;0.97;;;;;;;13.52;72.33;100825.47;6068302;29;20252;-74
2022/11/07 10:23:02;;;;;;;2.23;1.60;;;;;;;13.48;72.87;100840.34;6074798;29;20233;-74
2022/11/07 10:26:27;;;;;;;2.03;1.90;;;;;;;13.47;72.78;100842.22;6083645;29;20614;-76
2022/11/07 10:29:52;;;;;;;5.13;2.67;;;;;;;13.40;73.28;100834.84;6069995;29;20308;-73
2022/11/07 10:33:23;;;;;;;5.87;2.77;;;;;;;13.34;73.36;100838.19;6073305;29;20325;-73
2022/11/07 10:36:44;;;;;;;2.37;2.17;;;;;;;13.37;73.36;100840.59;6086512;29;20593;-84
2022/11/07 10:40:15;;;;;;;7.07;1.60;;;;;;;13.57;72.62;100829.44;6075073;29;20241;-77
2022/11/07 10:43:38;;;;;;;1.93;1.80;;;;;;;13.64;72.26;100825.06;6071032;29;20622;-77
2022/11/07 10:47:01;;;;;;;2.40;1.60;;;;;;;13.53;72.62;100835.31;6079104;29;20236;-83
2022/11/07 10:50:24;;;;;;;5.13;2.50;;;;;;;13.63;72.71;100836.94;6074138;29;20232;-76
2022/11/07 10:53:45;;;;;;;4.37;2.20;;;;;;;13.55;72.67;100834.16;6072656;29;20241;-72
2022/11/07 10:57:12;;;;;;;7.63;2.23;;;;;;;13.56;71.83;100834.97;6077008;29;20675;-75
2022/11/07 11:00:38;;;;;;;3.60;2.37;;;;;;;13.65;71.82;100839.47;6066553;29;20236;-75
2022/11/07 11:03:59;;;;;;;5.00;1.90;;;;;;;13.63;72.06;100828.81;6066008;29;20331;-73
2022/11/07 11:07:20;;;;;;;5.17;1.90;;;;;;;13.60;71.28;100839.94;6083767;29;20506;-74
2022/11/07 11:10:41;;;;;;;2.40;2.20;;;;;;;13.61;71.73;100836.25;6070040;29;20244;-78
2022/11/07 11:14:13;;;;;;;2.07;1.97;;;;;;;13.64;71.88;100835.91;6064559;29;20658;-81
2022/11/07 11:17:34;;;;;;;4.27;3.33;;;;;;;13.59;72.19;100818.44;6069797;29;20260;-75
2022/11/07 11:20:59;;;;;;;2.33;1.60;;;;;;;13.66;71.74;100826.78;6073702;29;20233;-76
2022/11/07 11:24:31;;;;;;;7.27;2.40;;;;;;;13.64;71.89;100832.38;6066934;29;20225;-75
2022/11/07 11:27:58;;;;;;;10.23;2.50;;;;;;;13.63;72.22;100834.22;6049418;29;20629;-75
2022/11/07 11:31:28;;;;;;;3.67;2.00;;;;;;;13.58;72.52;100827.56;6075864;29;20236;-76
2022/11/07 11:34:57;;;;;;;2.23;2.03;;;;;;;13.46;73.10;100829.66;6060788;29;20319;-77
2022/11/07 11:38:22;;;;;;;3.47;2.10;;;;;;;13.48;73.15;100835.78;6074509;29;20224;-77
2022/11/07 11:41:53;;;;;;;3.70;1.80;;;;;;;13.45;73.44;100827.97;6064546;29;20288;-81
2022/11/07 11:45:18;;;;;;;8.10;1.63;;;;;;;13.53;73.19;100816.34;6067899;29;20228;-76
2022/11/07 11:48:46;;;;;;;5.10;3.87;;;;;;;13.42;73.55;100830.97;6074547;29;20241;-76
2022/11/07 11:52:14;;;;;;;4.07;2.37;;;;;;;13.40;73.73;100824.00;6083397;29;20236;-77
2022/11/07 11:55:41;;;;;;;4.53;2.00;;;;;;;13.38;73.90;100836.88;6053032;29;20283;-75
2022/11/07 11:59:21;;;;;;;2.40;2.20;;;;;;;13.37;73.84;100827.88;6061448;29;20247;-77
2022/11/07 12:02:50;;;;;;;1.97;1.87;;;;;;;13.55;73.48;100831.44;6076018;29;20275;-73
2022/11/07 12:06:21;;;;;;;3.40;3.10;;;;;;;13.88;72.11;100835.25;6082435;29;20240;-76
2022/11/07 12:09:47;;;;;;;6.97;2.97;;;;;;;13.79;72.57;100841.63;6073871;29;20271;-72
2022/11/07 12:13:16;;;;;;;3.30;1.63;;;;;;;13.67;72.43;100869.09;6067169;29;20242;-83
2022/11/07 12:16:45;;;;;;;4.60;1.93;;;;;;;13.57;73.19;100855.66;6073496;29;20697;-73
2022/11/07 12:20:18;;;;;;;2.10;1.90;;;;;;;13.57;73.31;100844.81;6059985;29;20240;-74
2022/11/07 12:23:59;;;;;;;4.40;2.00;;;;;;;13.48;73.74;100860.16;6062592;29;20232;-79
2022/11/07 12:27:29;;;;;;;1.83;1.70;;;;;;;13.47;73.81;100860.31;6084143;29;20601;-76
2022/11/07 12:30:58;;;;;;;2.30;1.60;;;;;;;13.44;73.86;100850.63;6076015;29;20228;-77
2022/11/07 12:34:31;;;;;;;2.30;2.10;;;;;;;13.47;73.86;100850.34;6067496;29;20770;-74
2022/11/07 12:38:11;;;;;;;3.37;3.07;;;;;;;13.53;73.40;100848.84;6058322;29;20244;-78
2022/11/07 12:41:43;;;;;;;2.97;2.67;;;;;;;13.51;73.74;100853.56;6075084;29;20280;-75
2022/11/07 12:45:16;;;;;;;5.47;3.10;;;;;;;13.55;73.49;100850.41;6055751;29;20790;-74
2022/11/07 12:49:03;;;;;;;1.80;1.70;;;;;;;13.53;73.64;100852.44;6073774;29;20224;-71
2022/11/07 12:52:36;;;;;;;3.73;1.83;;;;;;;13.52;73.45;100850.72;6063399;29;20247;-74
2022/11/07 12:56:02;;;;;;;6.07;2.80;;;;;;;13.56;73.89;100843.09;6069427;29;20236;-72
2022/11/07 12:59:28;;;;;;;7.37;2.37;;;;;;;13.59;73.67;100853.66;6063836;29;20261;-73
2022/11/07 13:03:10;;;;;;;2.63;1.40;;;;;;;13.61;73.53;100843.50;6063742;29;20319;-72
2022/11/07 13:06:37;;;;;;;3.13;1.47;;;;;;;13.57;73.56;100851.09;6075859;29;20627;-71
2022/11/07 13:10:04;;;;;;;6.00;2.10;;;;;;;13.60;73.92;100855.38;6065309;29;20240;-71
2022/11/07 13:13:31;;;;;;;2.80;2.20;;;;;;;13.61;74.11;100844.38;6068722;29;20316;-70
2022/11/07 13:17:12;;;;;;;3.23;2.60;;;;;;;13.63;74.47;100855.03;6080070;29;20236;-73
2022/11/07 13:20:32;;;;;;;2.93;2.73;;;;;;;13.79;74.22;100840.78;6063239;29;20236;-72
2022/11/07 13:24:04;;;;;;;1.67;1.53;;;;;;;14.09;73.13;100841.16;6065267;29;20241;-73
2022/11/07 13:27:33;;;;;;;6.27;2.47;;;;;;;13.95;73.84;100846.31;6080103;29;20241;-73
2022/11/07 13:30:56;;;;;;;3.87;1.60;;;;;;;13.78;74.42;100844.47;6080325;29;20310;-69
2022/11/07 13:34:26;;;;;;;4.43;1.70;;;;;;;13.78;74.45;100844.47;6067537;29;20240;-74
2022/11/07 13:37:50;;;;;;;6.33;2.63;;;;;;;13.70;74.68;100852.56;6078661;29;20323;-75
2022/11/07 13:41:11;;;;;;;3.57;2.03;;;;;;;13.66;75.02;100856.59;6081235;29;20247;-72
2022/11/07 13:44:37;;;;;;;4.13;1.60;;;;;;;13.68;74.90;100862.69;6082398;29;20243;-74
2022/11/07 13:48:03;;;;;;;7.83;2.33;;;;;;;13.61;75.54;100876.88;6086586;29;20241;-74
2022/11/07 13:51:31;;;;;;;4.03;2.47;;;;;;;13.43;78.09;100864.34;6081476;29;20241;-76
2022/11/07 13:54:57;;;;;;;4.33;1.90;;;;;;;13.15;80.43;100873.50;6069403;29;20247;-72
2022/11/07 13:58:21;;;;;;;3.40;1.40;;;;;;;13.10;81.09;100882.09;6081930;29;20245;-72
2022/11/07 14:01:43;;;;;;;2.17;1.97;;;;;;;13.24;81.06;100886.13;6084182;29;20236;-77
2022/11/07 14:05:07;;;;;;;2.13;1.50;;;;;;;13.21;81.36;100886.44;6081605;29;20232;-76
2022/11/07 14:08:33;;;;;;;4.83;1.73;;;;;;;13.23;81.69;100881.72;6073550;29;20244;-74
2022/11/07 14:11:55;;;;;;;6.73;1.50;;;;;;;13.05;82.37;100899.78;6079892;29;20228;-71
2022/11/07 14:15:17;;;;;;;3.27;2.23;;;;;;;13.06;82.99;100886.09;6079169;29;20225;-77
2022/11/07 14:18:46;;;;;;;3.10;2.23;;;;;;;13.05;82.99;100883.56;6080561;29;20237;-76
2022/11/07 14:22:21;;;;;;;4.37;2.63;;;;;;;12.94;83.55;100890.00;6066570;29;20251;-73
2022/11/07 14:25:43;;;;;;;3.87;2.30;;;;;;;12.92;82.50;100891.13;6080011;29;20228;-76
2022/11/07 14:29:04;;;;;;;2.37;1.87;;;;;;;12.99;82.51;100882.28;6075306;29;20233;-77
2022/11/07 14:32:25;;;;;;;14.60;3.77;;;;;;;13.04;82.48;100884.53;6080251;29;20236;-75
2022/11/07 14:35:48;;;;;;;3.50;2.30;;;;;;;13.02;82.44;100884.66;6081856;29;20274;-72
2022/11/07 14:39:13;;;;;;;7.23;2.93;;;;;;;13.02;82.42;100886.50;6079840;29;20255;-74
2022/11/07 14:42:35;;;;;;;3.03;2.70;;;;;;;13.06;82.05;100879.84;6068402;29;20583;-73
2022/11/07 14:46:04;;;;;;;5.93;3.30;;;;;;;13.06;81.99;100890.69;6087432;29;20326;-73
2022/11/07 14:49:27;;;;;;;3.70;1.70;;;;;;;13.09;81.68;100890.38;6086043;29;20232;-76
2022/11/07 14:52:56;;;;;;;3.30;2.70;;;;;;;13.09;81.46;100880.41;6073379;29;20236;-74
2022/11/07 14:56:20;;;;;;;6.23;3.10;;;;;;;13.17;81.32;100880.47;6083899;29;20228;-74
2022/11/07 14:59:42;;;;;;;6.83;3.07;;;;;;;13.14;81.41;100878.06;6083780;29;20323;-75
2022/11/07 15:03:03;;;;;;;9.37;3.77;;;;;;;13.18;81.25;100879.50;6080115;29;20828;-75
2022/11/07 15:06:32;;;;;;;6.60;2.80;;;;;;;13.18;80.86;100884.03;6080253;29;20229;-73
2022/11/07 15:09:54;;;;;;;6.20;2.10;;;;;;;13.22;80.26;100877.31;6064714;29;20708;-80
2022/11/07 15:13:24;;;;;;;5.30;2.00;;;;;;;13.20;80.62;100876.63;6077770;29;20237;-73
2022/11/07 15:16:48;;;;;;;4.30;1.60;;;;;;;13.20;80.37;100885.59;6077393;29;20229;-69
2022/11/07 15:20:20;;;;;;;3.30;1.73;;;;;;;13.21;80.16;100889.13;6085721;29;20236;-70
2022/11/07 15:23:41;;;;;;;3.63;2.30;;;;;;;13.20;80.26;100891.03;6084833;29;20701;-72
2022/11/07 15:27:05;;;;;;;3.50;2.63;;;;;;;13.15;80.42;100890.59;6089411;29;20316;-72
2022/11/07 15:30:30;;;;;;;4.70;2.03;;;;;;;13.17;80.86;100895.88;6075008;29;20291;-71
2022/11/07 15:33:53;;;;;;;5.10;1.83;;;;;;;13.20;80.79;100903.69;6095945;29;20788;-69
2022/11/07 15:37:18;;;;;;;2.53;1.97;;;;;;;13.20;80.64;100901.00;6098856;29;20228;-71
2022/11/07 15:40:39;;;;;;;1.87;1.37;;;;;;;13.21;80.37;100902.66;6088876;29;20232;-70
2022/11/07 15:44:00;;;;;;;3.37;1.23;;;;;;;13.21;80.38;100903.53;6085757;29;20579;-69
2022/11/07 15:47:22;;;;;;;9.07;4.30;;;;;;;13.22;80.13;100893.56;6092450;29;20241;-69
2022/11/07 15:50:45;;;;;;;6.77;2.27;;;;;;;13.22;80.27;100905.25;6085088;29;20232;-69
2022/11/07 15:54:10;;;;;;;9.87;2.27;;;;;;;13.22;80.37;100913.38;6074958;29;20232;-69